Aviation Digital Data Service (ADDS)

Output produced by METARs form (2213 UTC 24 March 2019)
found at http://www.aviationweather.gov/metar/data/
 
TISX 241720Z 2418/2518 11013G20KT P6SM VCSH FEW025 SCT050 
     FM242300 07006KT P6SM VCSH SCT025 SCT050 
     FM251400 10015G22KT P6SM FEW025
       
TIST 241903Z 2419/2518 12012KT P6SM VCSH SCT025 SCT050 
     TEMPO 2419/2420 09015KT -SHRA BKN060 
     FM242200 09010KT P6SM FEW025 
     FM251400 12015G22KT P6SM FEW030